sensor_id;sensor_type;location;lat;lon;timestamp;temperature;humidity
26336;DHT22;14047;50.936;4.654;2023-01-09T00:00:27;6.80;99.90
26336;DHT22;14047;50.936;4.654;2023-01-09T00:02:53;6.80;99.90
26336;DHT22;14047;50.936;4.654;2023-01-09T00:05:19;6.90;99.90
26336;DHT22;14047;50.936;4.654;2023-01-09T00:07:45;6.90;99.90
26336;DHT22;14047;50.936;4.654;2023-01-09T00:10:12;6.80;99.90
26336;DHT22;14047;50.936;4.654;2023-01-09T00:12:39;6.90;99.90
26336;DHT22;14047;50.936;4.654;2023-01-09T00:15:05;6.90;99.90
26336;DHT22;14047;50.936;4.654;2023-01-09T00:17:31;6.90;99.90
26336;DHT22;14047;50.936;4.654;2023-01-09T00:19:57;6.90;99.90
26336;DHT22;14047;50.936;4.654;2023-01-09T00:22:23;6.80;99.90
26336;DHT22;14047;50.936;4.654;2023-01-09T00:24:49;6.80;99.90
26336;DHT22;14047;50.936;4.654;2023-01-09T00:27:15;6.80;99.90
26336;DHT22;14047;50.936;4.654;2023-01-09T00:29:42;6.80;99.90
26336;DHT22;14047;50.936;4.654;2023-01-09T00:32:10;6.70;99.90
26336;DHT22;14047;50.936;4.654;2023-01-09T00:34:37;6.60;99.90
26336;DHT22;14047;50.936;4.654;2023-01-09T00:37:04;6.50;99.90
26336;DHT22;14047;50.936;4.654;2023-01-09T00:39:40;6.60;99.90
26336;DHT22;14047;50.936;4.654;2023-01-09T00:42:10;6.40;99.90
26336;DHT22;14047;50.936;4.654;2023-01-09T00:44:42;6.50;99.90
26336;DHT22;14047;50.936;4.654;2023-01-09T00:47:13;6.50;99.90
26336;DHT22;14047;50.936;4.654;2023-01-09T00:49:41;6.70;99.90
26336;DHT22;14047;50.936;4.654;2023-01-09T00:52:09;6.80;99.90
26336;DHT22;14047;50.936;4.654;2023-01-09T00:54:37;6.80;99.90
26336;DHT22;14047;50.936;4.654;2023-01-09T00:57:03;6.80;99.90
26336;DHT22;14047;50.936;4.654;2023-01-09T00:59:30;6.80;99.90
26336;DHT22;14047;50.936;4.654;2023-01-09T01:01:57;6.70;99.90
26336;DHT22;14047;50.936;4.654;2023-01-09T01:04:23;6.60;99.90
26336;DHT22;14047;50.936;4.654;2023-01-09T01:07:07;6.70;99.90
26336;DHT22;14047;50.936;4.654;2023-01-09T01:09:52;6.60;99.90
26336;DHT22;14047;50.936;4.654;2023-01-09T01:12:18;6.70;99.90
26336;DHT22;14047;50.936;4.654;2023-01-09T01:14:44;6.70;99.90
26336;DHT22;14047;50.936;4.654;2023-01-09T01:17:10;6.70;99.90
26336;DHT22;14047;50.936;4.654;2023-01-09T01:19:36;6.80;99.90
26336;DHT22;14047;50.936;4.654;2023-01-09T01:22:02;6.70;99.90
26336;DHT22;14047;50.936;4.654;2023-01-09T01:24:28;6.70;99.90
26336;DHT22;14047;50.936;4.654;2023-01-09T01:26:55;6.60;99.90
26336;DHT22;14047;50.936;4.654;2023-01-09T01:29:21;6.50;99.90
26336;DHT22;14047;50.936;4.654;2023-01-09T01:31:47;6.50;99.90
26336;DHT22;14047;50.936;4.654;2023-01-09T01:34:13;6.60;99.90
26336;DHT22;14047;50.936;4.654;2023-01-09T01:36:38;6.60;99.90
26336;DHT22;14047;50.936;4.654;2023-01-09T01:39:04;6.60;99.90
26336;DHT22;14047;50.936;4.654;2023-01-09T01:41:30;6.50;99.90
26336;DHT22;14047;50.936;4.654;2023-01-09T01:44:00;6.50;99.90
26336;DHT22;14047;50.936;4.654;2023-01-09T01:46:28;6.50;99.90
26336;DHT22;14047;50.936;4.654;2023-01-09T01:49:05;6.50;99.90
26336;DHT22;14047;50.936;4.654;2023-01-09T01:51:36;6.50;99.90
26336;DHT22;14047;50.936;4.654;2023-01-09T01:54:07;6.60;99.90
26336;DHT22;14047;50.936;4.654;2023-01-09T01:56:39;6.70;99.90
26336;DHT22;14047;50.936;4.654;2023-01-09T01:59:16;6.70;99.90
26336;DHT22;14047;50.936;4.654;2023-01-09T02:01:48;6.70;99.90
26336;DHT22;14047;50.936;4.654;2023-01-09T02:04:15;6.70;99.90
26336;DHT22;14047;50.936;4.654;2023-01-09T02:06:41;6.80;99.90
26336;DHT22;14047;50.936;4.654;2023-01-09T02:09:08;6.80;99.90
26336;DHT22;14047;50.936;4.654;2023-01-09T02:11:46;6.90;99.90
26336;DHT22;14047;50.936;4.654;2023-01-09T02:14:14;6.80;99.90
26336;DHT22;14047;50.936;4.654;2023-01-09T02:25:27;7.00;99.90
26336;DHT22;14047;50.936;4.654;2023-01-09T02:28:43;7.20;99.90
26336;DHT22;14047;50.936;4.654;2023-01-09T02:34:25;7.20;99.90
26336;DHT22;14047;50.936;4.654;2023-01-09T02:37:12;7.30;99.90
26336;DHT22;14047;50.936;4.654;2023-01-09T02:39:56;7.30;99.90
26336;DHT22;14047;50.936;4.654;2023-01-09T02:42:28;7.40;99.90
26336;DHT22;14047;50.936;4.654;2023-01-09T02:44:54;7.50;99.90
26336;DHT22;14047;50.936;4.654;2023-01-09T02:49:55;7.50;99.90
26336;DHT22;14047;50.936;4.654;2023-01-09T03:06:21;8.00;99.90
26336;DHT22;14047;50.936;4.654;2023-01-09T03:08:54;8.10;99.90
26336;DHT22;14047;50.936;4.654;2023-01-09T03:11:26;8.20;99.90
26336;DHT22;14047;50.936;4.654;2023-01-09T03:13:55;8.30;99.90
26336;DHT22;14047;50.936;4.654;2023-01-09T03:16:29;8.20;99.90
26336;DHT22;14047;50.936;4.654;2023-01-09T03:18:57;8.10;99.90
26336;DHT22;14047;50.936;4.654;2023-01-09T03:21:25;8.20;99.90
26336;DHT22;14047;50.936;4.654;2023-01-09T03:23:55;8.00;99.90
26336;DHT22;14047;50.936;4.654;2023-01-09T03:26:22;8.00;99.90
26336;DHT22;14047;50.936;4.654;2023-01-09T03:28:49;8.10;99.90
26336;DHT22;14047;50.936;4.654;2023-01-09T03:31:15;8.20;99.90
26336;DHT22;14047;50.936;4.654;2023-01-09T03:33:42;8.00;99.90
26336;DHT22;14047;50.936;4.654;2023-01-09T03:36:09;8.00;99.90
26336;DHT22;14047;50.936;4.654;2023-01-09T03:38:36;8.00;99.90
26336;DHT22;14047;50.936;4.654;2023-01-09T03:41:02;7.80;99.90
26336;DHT22;14047;50.936;4.654;2023-01-09T03:43:28;7.90;99.90
26336;DHT22;14047;50.936;4.654;2023-01-09T03:45:55;7.90;99.90
26336;DHT22;14047;50.936;4.654;2023-01-09T03:48:21;7.80;99.90
26336;DHT22;14047;50.936;4.654;2023-01-09T03:50:49;7.70;99.90
26336;DHT22;14047;50.936;4.654;2023-01-09T03:53:15;7.70;99.90
26336;DHT22;14047;50.936;4.654;2023-01-09T03:55:50;7.70;99.90
26336;DHT22;14047;50.936;4.654;2023-01-09T03:58:17;7.70;99.90
26336;DHT22;14047;50.936;4.654;2023-01-09T04:00:44;7.50;99.90
26336;DHT22;14047;50.936;4.654;2023-01-09T04:03:11;7.60;99.90
26336;DHT22;14047;50.936;4.654;2023-01-09T04:05:37;7.60;99.90
26336;DHT22;14047;50.936;4.654;2023-01-09T04:08:04;7.60;99.90
26336;DHT22;14047;50.936;4.654;2023-01-09T04:10:30;7.70;99.90
26336;DHT22;14047;50.936;4.654;2023-01-09T04:12:56;7.70;99.90
26336;DHT22;14047;50.936;4.654;2023-01-09T04:15:22;8.00;99.90
26336;DHT22;14047;50.936;4.654;2023-01-09T04:17:49;7.90;99.90
26336;DHT22;14047;50.936;4.654;2023-01-09T04:20:15;7.90;99.90
26336;DHT22;14047;50.936;4.654;2023-01-09T04:22:41;7.90;99.90
26336;DHT22;14047;50.936;4.654;2023-01-09T04:25:07;8.00;99.90
26336;DHT22;14047;50.936;4.654;2023-01-09T04:27:33;8.10;99.90
26336;DHT22;14047;50.936;4.654;2023-01-09T04:29:59;8.20;99.90
26336;DHT22;14047;50.936;4.654;2023-01-09T04:32:25;8.30;99.90
26336;DHT22;14047;50.936;4.654;2023-01-09T04:34:55;8.40;99.90
26336;DHT22;14047;50.936;4.654;2023-01-09T04:37:22;8.50;99.90
26336;DHT22;14047;50.936;4.654;2023-01-09T04:39:49;8.60;99.90
26336;DHT22;14047;50.936;4.654;2023-01-09T04:42:16;8.60;99.90
26336;DHT22;14047;50.936;4.654;2023-01-09T04:44:43;8.60;99.90
26336;DHT22;14047;50.936;4.654;2023-01-09T04:47:09;8.70;99.90
26336;DHT22;14047;50.936;4.654;2023-01-09T04:49:35;8.70;99.90
26336;DHT22;14047;50.936;4.654;2023-01-09T04:52:01;8.70;99.90
26336;DHT22;14047;50.936;4.654;2023-01-09T04:54:27;8.50;99.90
26336;DHT22;14047;50.936;4.654;2023-01-09T04:56:53;8.30;99.90
26336;DHT22;14047;50.936;4.654;2023-01-09T04:59:19;8.20;99.90
26336;DHT22;14047;50.936;4.654;2023-01-09T05:01:45;8.20;99.90
26336;DHT22;14047;50.936;4.654;2023-01-09T05:04:11;8.30;99.90
26336;DHT22;14047;50.936;4.654;2023-01-09T05:06:38;8.30;99.90
26336;DHT22;14047;50.936;4.654;2023-01-09T05:09:04;8.30;99.90
26336;DHT22;14047;50.936;4.654;2023-01-09T05:11:30;8.20;99.90
26336;DHT22;14047;50.936;4.654;2023-01-09T05:13:56;8.10;99.90
26336;DHT22;14047;50.936;4.654;2023-01-09T05:16:22;8.10;99.90
26336;DHT22;14047;50.936;4.654;2023-01-09T05:18:48;8.10;99.90
26336;DHT22;14047;50.936;4.654;2023-01-09T05:21:15;8.20;99.90
26336;DHT22;14047;50.936;4.654;2023-01-09T05:23:41;8.20;99.90
26336;DHT22;14047;50.936;4.654;2023-01-09T05:26:07;8.20;99.90
26336;DHT22;14047;50.936;4.654;2023-01-09T05:28:33;8.10;99.90
26336;DHT22;14047;50.936;4.654;2023-01-09T05:30:59;8.20;99.90
26336;DHT22;14047;50.936;4.654;2023-01-09T05:33:25;8.20;99.90
26336;DHT22;14047;50.936;4.654;2023-01-09T05:35:51;8.20;99.90
26336;DHT22;14047;50.936;4.654;2023-01-09T05:38:17;8.30;99.90
26336;DHT22;14047;50.936;4.654;2023-01-09T05:40:43;8.20;99.90
26336;DHT22;14047;50.936;4.654;2023-01-09T05:43:09;8.20;99.90
26336;DHT22;14047;50.936;4.654;2023-01-09T05:45:35;8.20;99.90
26336;DHT22;14047;50.936;4.654;2023-01-09T05:48:01;8.10;99.90
26336;DHT22;14047;50.936;4.654;2023-01-09T05:50:27;8.00;99.90
26336;DHT22;14047;50.936;4.654;2023-01-09T05:52:53;7.90;99.90
26336;DHT22;14047;50.936;4.654;2023-01-09T05:55:19;7.90;99.90
26336;DHT22;14047;50.936;4.654;2023-01-09T05:57:45;7.90;99.90
26336;DHT22;14047;50.936;4.654;2023-01-09T06:00:11;7.80;99.90
26336;DHT22;14047;50.936;4.654;2023-01-09T06:02:37;7.80;99.90
26336;DHT22;14047;50.936;4.654;2023-01-09T06:05:04;7.90;99.90
26336;DHT22;14047;50.936;4.654;2023-01-09T06:07:30;7.90;99.90
26336;DHT22;14047;50.936;4.654;2023-01-09T06:09:56;7.90;99.90
26336;DHT22;14047;50.936;4.654;2023-01-09T06:12:22;7.90;99.90
26336;DHT22;14047;50.936;4.654;2023-01-09T06:14:48;7.90;99.90
26336;DHT22;14047;50.936;4.654;2023-01-09T06:17:13;7.90;99.90
26336;DHT22;14047;50.936;4.654;2023-01-09T06:19:39;8.00;99.90
26336;DHT22;14047;50.936;4.654;2023-01-09T06:22:05;8.00;99.90
26336;DHT22;14047;50.936;4.654;2023-01-09T06:24:31;8.00;99.90
26336;DHT22;14047;50.936;4.654;2023-01-09T06:26:57;8.00;99.90
26336;DHT22;14047;50.936;4.654;2023-01-09T06:29:23;8.00;99.90
26336;DHT22;14047;50.936;4.654;2023-01-09T06:31:49;8.00;99.90
26336;DHT22;14047;50.936;4.654;2023-01-09T06:34:15;8.00;99.90
26336;DHT22;14047;50.936;4.654;2023-01-09T06:36:41;8.00;99.90
26336;DHT22;14047;50.936;4.654;2023-01-09T06:39:06;8.00;99.90
26336;DHT22;14047;50.936;4.654;2023-01-09T06:41:32;8.00;99.90
26336;DHT22;14047;50.936;4.654;2023-01-09T06:43:58;8.00;99.90
26336;DHT22;14047;50.936;4.654;2023-01-09T06:46:24;8.10;99.90
26336;DHT22;14047;50.936;4.654;2023-01-09T06:48:50;8.00;99.90
26336;DHT22;14047;50.936;4.654;2023-01-09T06:51:16;8.00;99.90
26336;DHT22;14047;50.936;4.654;2023-01-09T06:53:42;7.90;99.90
26336;DHT22;14047;50.936;4.654;2023-01-09T06:56:08;8.00;99.90
26336;DHT22;14047;50.936;4.654;2023-01-09T06:58:34;8.00;99.90
26336;DHT22;14047;50.936;4.654;2023-01-09T07:01:00;7.90;99.90
26336;DHT22;14047;50.936;4.654;2023-01-09T07:03:26;8.00;99.90
26336;DHT22;14047;50.936;4.654;2023-01-09T07:05:52;8.00;99.90
26336;DHT22;14047;50.936;4.654;2023-01-09T07:08:18;7.90;99.90
26336;DHT22;14047;50.936;4.654;2023-01-09T07:10:44;8.00;99.90
26336;DHT22;14047;50.936;4.654;2023-01-09T07:13:10;8.00;99.90
26336;DHT22;14047;50.936;4.654;2023-01-09T07:15:36;7.90;99.90
26336;DHT22;14047;50.936;4.654;2023-01-09T07:18:02;7.80;99.90
26336;DHT22;14047;50.936;4.654;2023-01-09T07:20:28;7.80;99.90
26336;DHT22;14047;50.936;4.654;2023-01-09T07:22:54;7.80;99.90
26336;DHT22;14047;50.936;4.654;2023-01-09T07:25:20;7.90;99.90
26336;DHT22;14047;50.936;4.654;2023-01-09T07:27:46;7.80;99.90
26336;DHT22;14047;50.936;4.654;2023-01-09T07:30:13;7.80;99.90
26336;DHT22;14047;50.936;4.654;2023-01-09T07:32:39;7.90;99.90
26336;DHT22;14047;50.936;4.654;2023-01-09T07:35:09;7.90;99.90
26336;DHT22;14047;50.936;4.654;2023-01-09T07:37:35;7.90;99.90
26336;DHT22;14047;50.936;4.654;2023-01-09T07:40:02;7.90;99.90
26336;DHT22;14047;50.936;4.654;2023-01-09T07:42:28;7.90;99.90
26336;DHT22;14047;50.936;4.654;2023-01-09T07:44:54;7.80;99.90
26336;DHT22;14047;50.936;4.654;2023-01-09T07:47:20;7.90;99.90
26336;DHT22;14047;50.936;4.654;2023-01-09T07:49:46;7.80;99.90
26336;DHT22;14047;50.936;4.654;2023-01-09T07:52:12;7.80;99.90
26336;DHT22;14047;50.936;4.654;2023-01-09T07:54:38;7.80;99.90
26336;DHT22;14047;50.936;4.654;2023-01-09T07:57:04;7.80;99.90
26336;DHT22;14047;50.936;4.654;2023-01-09T07:59:30;7.80;99.90
26336;DHT22;14047;50.936;4.654;2023-01-09T08:01:56;7.90;99.90
26336;DHT22;14047;50.936;4.654;2023-01-09T08:04:22;7.90;99.90
26336;DHT22;14047;50.936;4.654;2023-01-09T08:06:48;7.80;99.90
26336;DHT22;14047;50.936;4.654;2023-01-09T08:09:14;7.80;99.90
26336;DHT22;14047;50.936;4.654;2023-01-09T08:11:40;7.70;99.90
26336;DHT22;14047;50.936;4.654;2023-01-09T08:14:06;7.70;99.90
26336;DHT22;14047;50.936;4.654;2023-01-09T08:16:32;7.70;99.90
26336;DHT22;14047;50.936;4.654;2023-01-09T08:18:58;7.70;99.90
26336;DHT22;14047;50.936;4.654;2023-01-09T08:21:24;7.70;99.90
26336;DHT22;14047;50.936;4.654;2023-01-09T08:23:50;7.70;99.90
26336;DHT22;14047;50.936;4.654;2023-01-09T08:26:16;7.70;99.90
26336;DHT22;14047;50.936;4.654;2023-01-09T08:28:44;7.70;99.90
26336;DHT22;14047;50.936;4.654;2023-01-09T08:31:10;7.80;99.90
26336;DHT22;14047;50.936;4.654;2023-01-09T08:33:36;7.80;99.90
26336;DHT22;14047;50.936;4.654;2023-01-09T08:36:02;7.80;99.90
26336;DHT22;14047;50.936;4.654;2023-01-09T08:38:28;7.70;99.90
26336;DHT22;14047;50.936;4.654;2023-01-09T08:40:54;7.70;99.90
26336;DHT22;14047;50.936;4.654;2023-01-09T08:43:20;7.80;99.90
26336;DHT22;14047;50.936;4.654;2023-01-09T08:46:04;7.80;99.90
26336;DHT22;14047;50.936;4.654;2023-01-09T08:48:49;7.80;99.90
26336;DHT22;14047;50.936;4.654;2023-01-09T08:51:15;7.80;99.90
26336;DHT22;14047;50.936;4.654;2023-01-09T08:53:41;7.80;99.90
26336;DHT22;14047;50.936;4.654;2023-01-09T08:56:07;7.80;99.90
26336;DHT22;14047;50.936;4.654;2023-01-09T08:58:33;7.80;99.90
26336;DHT22;14047;50.936;4.654;2023-01-09T09:00:59;7.80;99.90
26336;DHT22;14047;50.936;4.654;2023-01-09T09:03:29;7.80;99.90
26336;DHT22;14047;50.936;4.654;2023-01-09T09:05:55;7.80;99.90
26336;DHT22;14047;50.936;4.654;2023-01-09T09:08:21;7.80;99.90
26336;DHT22;14047;50.936;4.654;2023-01-09T09:10:47;7.80;99.90
26336;DHT22;14047;50.936;4.654;2023-01-09T09:13:13;7.80;99.90
26336;DHT22;14047;50.936;4.654;2023-01-09T09:15:39;7.80;99.90
26336;DHT22;14047;50.936;4.654;2023-01-09T09:18:05;7.70;99.90
26336;DHT22;14047;50.936;4.654;2023-01-09T09:20:34;7.70;99.90
26336;DHT22;14047;50.936;4.654;2023-01-09T09:23:01;7.80;99.90
26336;DHT22;14047;50.936;4.654;2023-01-09T09:25:27;7.80;99.90
26336;DHT22;14047;50.936;4.654;2023-01-09T09:27:53;7.80;99.90
26336;DHT22;14047;50.936;4.654;2023-01-09T09:30:22;7.80;99.90
26336;DHT22;14047;50.936;4.654;2023-01-09T09:32:48;7.90;99.90
26336;DHT22;14047;50.936;4.654;2023-01-09T09:35:15;7.80;99.90
26336;DHT22;14047;50.936;4.654;2023-01-09T09:37:53;7.80;99.90
26336;DHT22;14047;50.936;4.654;2023-01-09T09:40:38;7.80;99.90
26336;DHT22;14047;50.936;4.654;2023-01-09T09:46:07;7.70;99.90
26336;DHT22;14047;50.936;4.654;2023-01-09T09:48:49;7.60;99.90
26336;DHT22;14047;50.936;4.654;2023-01-09T09:54:32;7.50;99.90
26336;DHT22;14047;50.936;4.654;2023-01-09T09:57:01;7.40;99.90
26336;DHT22;14047;50.936;4.654;2023-01-09T09:59:33;7.50;99.90
26336;DHT22;14047;50.936;4.654;2023-01-09T10:04:38;7.40;99.90
26336;DHT22;14047;50.936;4.654;2023-01-09T10:07:23;7.40;99.90
26336;DHT22;14047;50.936;4.654;2023-01-09T10:09:59;7.50;99.90
26336;DHT22;14047;50.936;4.654;2023-01-09T10:12:36;7.50;99.90
26336;DHT22;14047;50.936;4.654;2023-01-09T10:15:15;7.40;99.90
26336;DHT22;14047;50.936;4.654;2023-01-09T10:26:09;7.40;99.90
26336;DHT22;14047;50.936;4.654;2023-01-09T10:34:37;7.50;99.90
26336;DHT22;14047;50.936;4.654;2023-01-09T10:37:25;7.70;99.90
26336;DHT22;14047;50.936;4.654;2023-01-09T10:39:58;7.70;99.90
26336;DHT22;14047;50.936;4.654;2023-01-09T10:45:04;7.80;99.90
26336;DHT22;14047;50.936;4.654;2023-01-09T10:47:34;7.80;99.90
26336;DHT22;14047;50.936;4.654;2023-01-09T10:52:45;7.80;99.90
26336;DHT22;14047;50.936;4.654;2023-01-09T10:58:01;7.70;99.90
26336;DHT22;14047;50.936;4.654;2023-01-09T11:00:29;7.70;99.90
26336;DHT22;14047;50.936;4.654;2023-01-09T11:02:55;7.70;99.90
26336;DHT22;14047;50.936;4.654;2023-01-09T11:05:26;7.80;99.90
26336;DHT22;14047;50.936;4.654;2023-01-09T11:10:21;7.70;99.90
26336;DHT22;14047;50.936;4.654;2023-01-09T11:12:47;7.70;99.90
26336;DHT22;14047;50.936;4.654;2023-01-09T11:15:21;7.70;99.90
26336;DHT22;14047;50.936;4.654;2023-01-09T11:17:54;7.60;99.90
26336;DHT22;14047;50.936;4.654;2023-01-09T11:20:27;7.70;99.90
26336;DHT22;14047;50.936;4.654;2023-01-09T11:22:58;7.80;99.90
26336;DHT22;14047;50.936;4.654;2023-01-09T11:25:25;7.80;99.90
26336;DHT22;14047;50.936;4.654;2023-01-09T11:30:28;7.80;99.90
26336;DHT22;14047;50.936;4.654;2023-01-09T11:32:55;7.70;99.90
26336;DHT22;14047;50.936;4.654;2023-01-09T11:35:30;7.80;99.90
26336;DHT22;14047;50.936;4.654;2023-01-09T11:38:15;7.70;99.90
26336;DHT22;14047;50.936;4.654;2023-01-09T11:40:50;7.80;99.90
26336;DHT22;14047;50.936;4.654;2023-01-09T11:43:19;7.70;99.90
26336;DHT22;14047;50.936;4.654;2023-01-09T11:45:52;7.70;99.90
26336;DHT22;14047;50.936;4.654;2023-01-09T11:48:31;7.80;99.90
26336;DHT22;14047;50.936;4.654;2023-01-09T11:51:00;7.80;99.90
26336;DHT22;14047;50.936;4.654;2023-01-09T11:53:27;7.80;99.90
26336;DHT22;14047;50.936;4.654;2023-01-09T11:56:00;7.90;99.90
26336;DHT22;14047;50.936;4.654;2023-01-09T11:58:30;8.00;99.90
26336;DHT22;14047;50.936;4.654;2023-01-09T12:04:10;8.20;99.90
26336;DHT22;14047;50.936;4.654;2023-01-09T12:10:18;8.20;99.90
26336;DHT22;14047;50.936;4.654;2023-01-09T12:21:35;8.30;99.90
26336;DHT22;14047;50.936;4.654;2023-01-09T12:24:11;8.30;99.90
26336;DHT22;14047;50.936;4.654;2023-01-09T12:32:30;8.20;99.90
26336;DHT22;14047;50.936;4.654;2023-01-09T12:35:20;8.20;99.90
26336;DHT22;14047;50.936;4.654;2023-01-09T12:43:46;8.40;99.90
26336;DHT22;14047;50.936;4.654;2023-01-09T12:46:20;8.40;99.90
26336;DHT22;14047;50.936;4.654;2023-01-09T12:56:53;8.30;99.90
26336;DHT22;14047;50.936;4.654;2023-01-09T13:04:38;8.50;99.90
26336;DHT22;14047;50.936;4.654;2023-01-09T13:07:19;8.50;99.90
26336;DHT22;14047;50.936;4.654;2023-01-09T13:10:01;8.60;99.90
26336;DHT22;14047;50.936;4.654;2023-01-09T13:12:34;8.60;99.90
26336;DHT22;14047;50.936;4.654;2023-01-09T13:15:03;8.60;99.90
26336;DHT22;14047;50.936;4.654;2023-01-09T13:17:37;8.60;99.90
26336;DHT22;14047;50.936;4.654;2023-01-09T13:20:20;8.60;99.90
26336;DHT22;14047;50.936;4.654;2023-01-09T13:22:48;8.70;99.90
26336;DHT22;14047;50.936;4.654;2023-01-09T13:28:17;8.90;99.90
26336;DHT22;14047;50.936;4.654;2023-01-09T13:31:10;9.00;99.90
26336;DHT22;14047;50.936;4.654;2023-01-09T13:33:40;8.90;99.90
26336;DHT22;14047;50.936;4.654;2023-01-09T13:36:08;8.90;99.90
26336;DHT22;14047;50.936;4.654;2023-01-09T13:38:48;9.00;99.90
26336;DHT22;14047;50.936;4.654;2023-01-09T13:41:16;9.10;99.90
26336;DHT22;14047;50.936;4.654;2023-01-09T13:44:25;9.20;99.90
26336;DHT22;14047;50.936;4.654;2023-01-09T13:46:55;9.20;99.90
26336;DHT22;14047;50.936;4.654;2023-01-09T13:57:28;9.30;99.90
26336;DHT22;14047;50.936;4.654;2023-01-09T14:05:16;9.50;99.90
26336;DHT22;14047;50.936;4.654;2023-01-09T14:08:11;9.40;99.90
26336;DHT22;14047;50.936;4.654;2023-01-09T14:10:47;9.30;99.90
26336;DHT22;14047;50.936;4.654;2023-01-09T14:15:42;9.00;99.90
26336;DHT22;14047;50.936;4.654;2023-01-09T14:18:23;9.10;99.90
26336;DHT22;14047;50.936;4.654;2023-01-09T14:20:55;9.10;99.90
26336;DHT22;14047;50.936;4.654;2023-01-09T14:23:22;9.20;99.90
26336;DHT22;14047;50.936;4.654;2023-01-09T14:25:50;9.20;99.90
26336;DHT22;14047;50.936;4.654;2023-01-09T14:28:21;9.20;99.90
26336;DHT22;14047;50.936;4.654;2023-01-09T14:38:53;8.90;99.90
26336;DHT22;14047;50.936;4.654;2023-01-09T14:50:04;8.60;99.90
26336;DHT22;14047;50.936;4.654;2023-01-09T14:52:34;8.70;99.90
26336;DHT22;14047;50.936;4.654;2023-01-09T14:55:05;8.70;99.90
26336;DHT22;14047;50.936;4.654;2023-01-09T14:57:38;8.60;99.90
26336;DHT22;14047;50.936;4.654;2023-01-09T15:02:39;8.50;99.90
26336;DHT22;14047;50.936;4.654;2023-01-09T15:05:20;8.50;99.90
26336;DHT22;14047;50.936;4.654;2023-01-09T15:07:54;8.50;99.90
26336;DHT22;14047;50.936;4.654;2023-01-09T15:10:30;8.40;99.90
26336;DHT22;14047;50.936;4.654;2023-01-09T15:13:01;8.40;99.90
26336;DHT22;14047;50.936;4.654;2023-01-09T15:15:29;8.40;99.90
26336;DHT22;14047;50.936;4.654;2023-01-09T15:17:58;8.30;99.90
26336;DHT22;14047;50.936;4.654;2023-01-09T15:20:29;8.40;99.90
26336;DHT22;14047;50.936;4.654;2023-01-09T15:22:57;8.30;99.90
26336;DHT22;14047;50.936;4.654;2023-01-09T15:25:51;8.20;99.90
26336;DHT22;14047;50.936;4.654;2023-01-09T15:28:24;8.40;99.90
26336;DHT22;14047;50.936;4.654;2023-01-09T15:31:13;8.30;99.90
26336;DHT22;14047;50.936;4.654;2023-01-09T15:33:42;8.20;99.90
26336;DHT22;14047;50.936;4.654;2023-01-09T15:36:18;8.10;99.90
26336;DHT22;14047;50.936;4.654;2023-01-09T15:38:46;8.10;99.90
26336;DHT22;14047;50.936;4.654;2023-01-09T15:41:18;8.00;99.90
26336;DHT22;14047;50.936;4.654;2023-01-09T15:44:14;8.00;99.90
26336;DHT22;14047;50.936;4.654;2023-01-09T15:46:42;8.00;99.90
26336;DHT22;14047;50.936;4.654;2023-01-09T15:49:11;8.00;99.90
26336;DHT22;14047;50.936;4.654;2023-01-09T15:51:40;8.00;99.90
26336;DHT22;14047;50.936;4.654;2023-01-09T15:54:16;8.00;99.90
26336;DHT22;14047;50.936;4.654;2023-01-09T15:56:44;8.00;99.90
26336;DHT22;14047;50.936;4.654;2023-01-09T16:01:58;7.90;99.90
26336;DHT22;14047;50.936;4.654;2023-01-09T16:04:45;7.90;99.90
26336;DHT22;14047;50.936;4.654;2023-01-09T16:07:15;7.90;99.90
26336;DHT22;14047;50.936;4.654;2023-01-09T16:09:48;7.80;99.90
26336;DHT22;14047;50.936;4.654;2023-01-09T16:12:24;7.80;99.90
26336;DHT22;14047;50.936;4.654;2023-01-09T16:14:56;7.70;99.90
26336;DHT22;14047;50.936;4.654;2023-01-09T16:17:23;7.60;99.90
26336;DHT22;14047;50.936;4.654;2023-01-09T16:19:57;7.70;99.90
26336;DHT22;14047;50.936;4.654;2023-01-09T16:24:56;7.70;99.90
26336;DHT22;14047;50.936;4.654;2023-01-09T16:27:28;7.80;99.90
26336;DHT22;14047;50.936;4.654;2023-01-09T16:30:07;7.70;99.90
26336;DHT22;14047;50.936;4.654;2023-01-09T16:32:44;7.70;99.90
26336;DHT22;14047;50.936;4.654;2023-01-09T16:35:16;7.70;99.90
26336;DHT22;14047;50.936;4.654;2023-01-09T16:37:42;7.70;99.90
26336;DHT22;14047;50.936;4.654;2023-01-09T16:42:43;7.60;99.90
26336;DHT22;14047;50.936;4.654;2023-01-09T16:45:31;7.60;99.90
26336;DHT22;14047;50.936;4.654;2023-01-09T16:47:59;7.50;99.90
26336;DHT22;14047;50.936;4.654;2023-01-09T16:50:25;7.50;99.90
26336;DHT22;14047;50.936;4.654;2023-01-09T16:52:51;7.50;99.90
26336;DHT22;14047;50.936;4.654;2023-01-09T16:55:17;7.40;99.90
26336;DHT22;14047;50.936;4.654;2023-01-09T16:57:43;7.40;99.90
26336;DHT22;14047;50.936;4.654;2023-01-09T17:00:15;7.40;99.90
26336;DHT22;14047;50.936;4.654;2023-01-09T17:02:42;7.40;99.90
26336;DHT22;14047;50.936;4.654;2023-01-09T17:05:08;7.40;99.90
26336;DHT22;14047;50.936;4.654;2023-01-09T17:07:34;7.40;99.90
26336;DHT22;14047;50.936;4.654;2023-01-09T17:10:00;7.40;99.90
26336;DHT22;14047;50.936;4.654;2023-01-09T17:12:26;7.40;99.90
26336;DHT22;14047;50.936;4.654;2023-01-09T17:14:52;7.50;99.90
26336;DHT22;14047;50.936;4.654;2023-01-09T17:17:18;7.60;99.90
26336;DHT22;14047;50.936;4.654;2023-01-09T17:19:48;7.60;99.90
26336;DHT22;14047;50.936;4.654;2023-01-09T17:22:14;7.60;99.90
26336;DHT22;14047;50.936;4.654;2023-01-09T17:24:40;7.40;99.90
26336;DHT22;14047;50.936;4.654;2023-01-09T17:27:27;7.30;99.90
26336;DHT22;14047;50.936;4.654;2023-01-09T17:30:13;7.10;99.90
26336;DHT22;14047;50.936;4.654;2023-01-09T17:32:39;7.10;99.90
26336;DHT22;14047;50.936;4.654;2023-01-09T17:35:06;7.00;99.90
26336;DHT22;14047;50.936;4.654;2023-01-09T17:37:32;6.90;99.90
26336;DHT22;14047;50.936;4.654;2023-01-09T17:39:58;6.90;99.90
26336;DHT22;14047;50.936;4.654;2023-01-09T17:42:29;7.00;99.90
26336;DHT22;14047;50.936;4.654;2023-01-09T17:44:55;6.90;99.90
26336;DHT22;14047;50.936;4.654;2023-01-09T17:47:21;6.90;99.90
26336;DHT22;14047;50.936;4.654;2023-01-09T17:49:47;6.90;99.90
26336;DHT22;14047;50.936;4.654;2023-01-09T17:52:13;7.00;99.90
26336;DHT22;14047;50.936;4.654;2023-01-09T17:54:39;6.90;99.90
26336;DHT22;14047;50.936;4.654;2023-01-09T17:57:06;6.90;99.90
26336;DHT22;14047;50.936;4.654;2023-01-09T17:59:32;7.00;99.90
26336;DHT22;14047;50.936;4.654;2023-01-09T18:01:59;7.10;99.90
26336;DHT22;14047;50.936;4.654;2023-01-09T18:04:25;7.30;99.90
26336;DHT22;14047;50.936;4.654;2023-01-09T18:06:51;7.40;99.90
26336;DHT22;14047;50.936;4.654;2023-01-09T18:09:19;7.30;99.90
26336;DHT22;14047;50.936;4.654;2023-01-09T18:11:45;7.40;99.90
26336;DHT22;14047;50.936;4.654;2023-01-09T18:14:13;7.30;99.90
26336;DHT22;14047;50.936;4.654;2023-01-09T18:16:39;7.20;99.90
26336;DHT22;14047;50.936;4.654;2023-01-09T18:19:05;7.20;99.90
26336;DHT22;14047;50.936;4.654;2023-01-09T18:21:31;7.20;99.90
26336;DHT22;14047;50.936;4.654;2023-01-09T18:23:57;7.20;99.90
26336;DHT22;14047;50.936;4.654;2023-01-09T18:26:24;7.30;99.90
26336;DHT22;14047;50.936;4.654;2023-01-09T18:28:53;7.20;99.90